Latest Weather Observations for Point Perpendicular

IDN60801

Issued at 2:04 am EDT Friday 29 January 2021 (issued every 10 minutes, with the page automatically refreshed every 10 minutes)

About weather observations | Map of weather stations | Latest weather observations for NSW | Other Formats
Station Details ID: 068151 Name: POINT PERPENDICULAR AWS Lat: -35.09 Lon: 150.80 Height: 85.0 m
Data from the previous 72 hours. | See also: Recent months at Point Perpendicular
Date/Time
EDT
Temp
°C
App
Temp
°C
Dew
Point
°C
Rel
Hum
%
Delta-T
°C
Wind Press
QNH
hPa
Press
MSL
hPa
Rain since
9am
mm
Dir  Spd
km/h
Gust
km/h
Spd
kts
Gust
kts
29/02:00am 19.9 18.0 15.1 74 2.8 E 19 30 10 16 1020.4 1020.1 0.0
29/01:30am 19.9 17.8 15.1 74 2.8 ESE 20 33 11 18 1020.7 1020.4 0.0
29/01:00am 20.0 18.1 15.2 74 2.8 ESE 19 30 10 16 1020.9 1020.6 0.0
29/12:30am 19.9 18.0 15.1 74 2.8 ESE 19 30 10 16 1021.2 1020.9 0.0
29/12:00am 19.9 18.0 15.3 75 2.7 ESE 19 30 10 16 1021.5 1021.2 0.0
 
Date/Time
EDT
Temp
°C
App
Temp
°C
Dew
Point
°C
Rel
Hum
%
Delta-T
°C
Wind Press
QNH
hPa
Press
MSL
hPa
Rain since
9am
mm
Dir  Spd
km/h
Gust
km/h
Spd
kts
Gust
kts
28/11:30pm 19.9 17.8 15.1 74 2.8 ESE 20 33 11 18 1021.5 1021.2 0.0
28/11:00pm 20.0 18.0 15.0 73 2.9 ESE 19 30 10 16 1021.5 1021.2 0.0
28/10:30pm 19.9 17.0 15.1 74 2.8 ESE 24 37 13 20 1021.7 1021.4 0.0
28/10:00pm 19.8 17.4 15.4 76 2.6 ESE 22 32 12 17 1021.8 1021.5 0.0
28/09:30pm 19.4 17.4 15.5 78 2.3 SE 20 32 11 17 1021.7 1021.4 0.0
28/09:00pm 19.4 16.9 15.1 76 2.5 ESE 22 35 12 19 1021.5 1021.2 0.0
28/08:30pm 19.8 17.7 15.2 75 2.7 SE 20 33 11 18 1021.5 1021.2 0.0
28/08:00pm 19.7 17.6 14.7 73 2.9 SE 19 32 10 17 1021.6 1021.3 0.0
28/07:30pm 19.7 17.2 14.1 70 3.2 SE 20 33 11 18 1021.8 1021.5 0.0
28/07:00pm 19.8 17.6 14.4 71 3.1 SE 19 33 10 18 1021.6 1021.3 0.0
28/06:30pm 19.9 17.4 13.6 67 3.6 SE 19 32 10 17 1021.6 1021.3 0.0
28/06:00pm 19.8 17.6 13.3 66 3.7 SE 17 28 9 15 1021.5 1021.2 0.0
28/05:30pm 19.7 17.2 13.4 67 3.6 ESE 19 33 10 18 1021.4 1021.1 0.0
28/05:00pm 19.8 17.4 13.7 68 3.5 ESE 19 32 10 17 1021.4 1021.1 0.0
28/04:30pm 19.8 17.9 13.0 65 3.9 SE 15 26 8 14 1021.9 1021.6 0.0
28/04:00pm 19.7 17.5 12.2 62 4.2 SE 15 24 8 13 1022.0 1021.7 0.0
28/03:30pm 19.7 16.8 12.2 62 4.2 SE 19 30 10 16 1022.1 1021.8 0.0
28/03:00pm 20.0 17.9 13.5 66 3.7 ESE 17 30 9 16 1022.1 1021.8 0.0
28/02:30pm 20.3 17.9 12.8 62 4.3 ESE 17 32 9 17 1022.0 1021.7 0.0
28/02:00pm 20.0 17.1 13.0 64 4.0 ESE 20 33 11 18 1022.3 1022.0 0.0
28/01:30pm 20.0 17.0 12.7 63 4.1 SE 20 33 11 18 1022.3 1022.0 0.0
28/01:00pm 20.8 17.8 13.7 64 4.1 ESE 22 35 12 19 1022.4 1022.1 0.0
28/12:30pm 20.4 17.6 12.6 61 4.4 ESE 19 32 10 17 1022.9 1022.6 0.0
28/12:00pm 20.2 17.7 12.2 60 4.5 SE 17 28 9 15 1023.1 1022.8 0.0
28/11:30am 20.0 17.3 11.8 59 4.6 SE 17 28 9 15 1023.1 1022.8 0.0
28/11:00am 19.7 16.9 12.7 64 3.9 SE 19 30 10 16 1022.8 1022.5 0.0
28/10:30am 19.8 16.9 12.8 64 4.0 ESE 20 32 11 17 1022.8 1022.5 0.0
28/10:00am 20.0 17.2 13.2 65 3.9 ESE 20 33 11 18 1022.8 1022.5 0.0
28/09:30am 20.0 17.9 13.7 67 3.6 ESE 17 28 9 15 1022.5 1022.2 0.0
28/09:00am 19.9 17.4 13.4 66 3.7 ESE 19 32 10 17 1021.9 1021.6 6.0
28/08:30am 20.0 17.9 13.7 67 3.6 ESE 17 32 9 17 1022.0 1021.7 6.0
28/08:00am 19.9 17.4 13.6 67 3.6 SE 19 33 10 18 1021.5 1021.2 6.0
28/07:30am 20.0 18.1 14.1 69 3.4 SE 17 30 9 16 1021.5 1021.2 6.0
28/07:00am 19.9 18.0 14.3 70 3.2 SE 17 28 9 15 1021.0 1020.7 6.0
28/06:30am 19.9 18.0 14.3 70 3.3 SE 17 30 9 16 1020.7 1020.4 6.0
28/06:00am 19.9 17.5 14.3 70 3.2 ESE 20 32 11 17 1020.4 1020.1 6.0
28/05:30am 20.0 18.0 15.4 75 2.7 ESE 20 33 11 18 1019.8 1019.5 6.0
28/05:00am 20.1 18.1 14.9 72 3.1 SE 19 33 10 18 1019.5 1019.2 6.0
28/04:30am 20.1 18.0 14.7 71 3.2 SE 19 35 10 19 1019.0 1018.7 6.0
28/04:00am 20.1 17.9 14.9 72 3.1 ESE 20 30 11 16 1019.3 1019.0 6.0
28/03:30am 20.0 17.9 14.8 72 3.1 ESE 19 32 10 17 1019.2 1018.9 6.0
28/03:00am 20.0 17.8 15.0 73 2.9 SE 20 37 11 20 1019.2 1018.9 6.0
28/02:30am 20.0 18.0 15.4 75 2.7 SE 20 33 11 18 1019.4 1019.1 6.0
28/02:00am 20.2 18.2 15.6 75 2.7 SE 20 33 11 18 1019.5 1019.2 6.0
28/01:30am 20.1 17.4 14.7 71 3.2 SE 22 39 12 21 1019.3 1019.0 6.0
28/01:00am 20.1 18.0 15.3 74 2.8 ESE 20 35 11 19 1019.1 1018.8 6.0
28/12:30am 20.3 17.9 16.3 78 2.4 ESE 24 39 13 21 1019.2 1018.9 6.0
28/12:00am 19.5 17.2 15.8 79 2.2 ESE 22 37 12 20 1019.6 1019.3 6.0
 
Date/Time
EDT
Temp
°C
App
Temp
°C
Dew
Point
°C
Rel
Hum
%
Delta-T
°C
Wind Press
QNH
hPa
Press
MSL
hPa
Rain since
9am
mm
Dir  Spd
km/h
Gust
km/h
Spd
kts
Gust
kts
27/11:30pm 20.3 17.6 15.7 75 2.7 SE 24 41 13 22 1019.2 1018.9 6.0
27/11:00pm 20.8 18.8 15.4 71 3.2 SE 20 33 11 18 1019.3 1019.0 6.0
27/10:30pm 20.9 19.2 16.3 75 2.8 SE 20 39 11 21 1019.3 1019.0 6.0
27/10:00pm 20.7 18.9 15.9 74 2.9 SE 20 35 11 19 1018.9 1018.6 6.0
27/09:30pm 20.9 18.8 16.1 74 2.9 ESE 22 39 12 21 1018.5 1018.2 6.0
27/09:00pm 20.3 19.0 16.9 81 2.1 ESE 19 28 10 15 1018.2 1017.9 6.0
27/08:30pm 20.6 19.4 17.4 82 2.0 ESE 20 33 11 18 1018.2 1017.9 6.0
27/08:00pm 20.4 19.1 17.2 82 2.0 ESE 20 32 11 17 1018.1 1017.8 6.0
27/07:30pm 20.2 19.5 17.4 84 1.7 SE 17 28 9 15 1017.5 1017.2 6.0
27/07:00pm 19.3 18.6 17.4 89 1.2 SE 17 28 9 15 1017.2 1016.9 6.0
27/06:30pm 18.8 19.3 17.5 92 0.8 SSW 11 22 6 12 1017.1 1016.8 5.6
27/06:00pm 18.7 19.4 18.0 96 0.4 SSW 11 19 6 10 1016.8 1016.5 5.0
27/05:30pm 18.4 18.3 17.9 97 0.3 S 15 20 8 11 1016.3 1016.0 5.0
27/05:00pm 18.4 16.2 17.8 96 0.4 S 26 39 14 21 1015.9 1015.6 2.8
27/04:30pm 18.4 16.0 17.4 94 0.6 SSW 26 43 14 23 1015.7 1015.4 1.2
27/04:03pm 19.3 15.4 16.9 86 1.5 SSW 33 52 18 28 1015.5 1015.2 0.8
27/04:00pm 19.5 15.7 16.7 84 1.7 SSW 32 46 17 25 1015.3 1015.0 0.8
27/03:30pm 19.9 16.2 16.0 78 2.3 SSW 30 43 16 23 1015.4 1015.1 0.8
27/03:17pm 19.9 16.6 16.0 78 2.3 SSW 28 46 15 25 1015.4 1015.1 0.8
27/03:00pm 19.9 16.6 16.0 78 2.3 SSW 28 44 15 24 1015.3 1015.0 0.8
27/02:30pm 19.9 16.8 15.7 77 2.5 SSW 26 43 14 23 1015.2 1014.9 0.8
27/02:07pm 20.1 16.8 16.1 78 2.4 SSW 28 46 15 25 1015.2 1014.9 0.8
27/02:00pm 19.9 15.9 15.3 75 2.7 SSW 30 43 16 23 1015.4 1015.1 0.8
27/01:30pm 20.0 16.2 15.8 77 2.5 SSW 30 43 16 23 1015.1 1014.8 0.8
27/01:08pm 20.4 16.9 16.4 78 2.4 SSW 30 50 16 27 1014.9 1014.6 0.8
27/01:00pm 20.0 16.7 16.0 78 2.4 SSW 28 39 15 21 1014.9 1014.6 0.8
27/12:35pm 20.1 16.7 15.9 77 2.5 SSW 28 46 15 25 1014.9 1014.6 0.8
27/12:30pm 19.8 16.0 15.7 77 2.4 SSW 30 46 16 25 1015.0 1014.7 0.8
27/12:26pm 19.7 16.4 16.0 79 2.2 SSW 28 46 15 25 1014.9 1014.6 0.8
27/12:00pm 19.4 16.3 16.6 84 1.7 S 28 43 15 23 1014.9 1014.6 0.8
27/11:30am 18.8 15.4 16.8 88 1.2 SSW 30 48 16 26 1014.6 1014.2 0.8
27/11:27am 19.0 15.7 17.0 88 1.2 SSW 30 48 16 26 1014.7 1014.3 0.8
27/11:00am 18.6 15.9 17.6 94 0.6 SSW 28 43 15 23 1014.3 1013.9 0.8
27/10:30am 18.7 16.0 17.5 93 0.7 SSW 28 43 15 23 1014.0 1013.6 0.6
27/10:16am 18.5 15.7 17.3 93 0.7 SSW 28 46 15 25 1013.6 1013.2 0.6
27/10:00am 19.0 16.4 17.7 92 0.8 S 28 41 15 22 1013.5 1013.1 0.4
27/09:30am 19.1 16.0 17.6 91 0.9 S 30 44 16 24 1013.3 1012.9 0.2
27/09:16am 19.3 16.6 17.6 90 1.0 S 28 46 15 25 1013.0 1012.6 0.2
27/09:00am 19.1 15.7 17.6 91 0.9 S 32 46 17 25 1012.8 1012.4 10.4
27/08:30am 19.6 16.5 17.6 88 1.2 S 30 44 16 24 1012.3 1011.9 10.2
27/08:00am 19.7 17.1 17.8 89 1.2 S 28 46 15 25 1011.9 1011.5 10.2
27/07:30am 19.4 15.9 17.5 89 1.2 S 32 46 17 25 1011.4 1011.0 10.2
27/07:04am 19.2 16.4 18.2 94 0.6 S 30 48 16 26 1010.8 1010.5 10.2
27/07:00am 19.0 15.7 18.0 94 0.6 S 32 48 17 26 1010.7 1010.4 10.2
27/06:59am 19.1 16.3 18.3 95 0.5 S 30 48 16 26 1010.7 1010.4 10.2
27/06:30am 19.0 17.3 18.2 95 0.5 S 24 43 13 23 1010.5 1010.2 9.6
27/06:00am 19.3 16.6 18.5 95 0.5 SSW 30 44 16 24 1010.1 1009.8 8.6
27/05:30am 19.3 16.9 18.3 94 0.6 SSW 28 39 15 21 1009.3 1009.0 8.4
27/05:00am 19.3 17.1 18.6 96 0.4 SSW 28 44 15 24 1008.9 1008.6 8.4
27/04:30am 19.2 17.0 18.7 97 0.3 SSW 28 39 15 21 1008.6 1008.3 8.2
27/04:00am 19.0 17.0 18.3 96 0.4 SSW 26 39 14 21 1008.4 1008.1 8.0
27/03:30am 18.9 16.5 18.2 96 0.4 SSW 28 39 15 21 1008.3 1008.0 7.0
27/03:00am 19.1 16.9 18.6 97 0.3 SSW 28 43 15 23 1008.3 1008.0 6.8
27/02:30am 19.1 17.3 18.8 98 0.2 SSW 26 41 14 22 1007.4 1007.1 6.8
27/02:00am 19.8 18.0 19.5 98 0.2 SSW 28 43 15 23 1007.3 1007.0 6.4
27/01:30am 20.4 20.0 20.1 98 0.2 SW 22 32 12 17 1007.8 1007.5 5.8
27/01:00am 20.4 20.5 19.9 97 0.3 SW 19 28 10 15 1007.6 1007.3 5.4
27/12:30am 21.1 21.2 20.4 96 0.5 SW 20 30 11 16 1007.4 1007.1 5.0
27/12:00am 22.1 24.0 21.3 95 0.5 S 13 22 7 12 1007.2 1006.9 5.0
 
Date/Time
EDT
Temp
°C
App
Temp
°C
Dew
Point
°C
Rel
Hum
%
Delta-T
°C
Wind Press
QNH
hPa
Press
MSL
hPa
Rain since
9am
mm
Dir  Spd
km/h
Gust
km/h
Spd
kts
Gust
kts
26/11:30pm 22.2 23.8 21.4 95 0.5 SSE 15 22 8 12 1006.9 1006.6 5.0
26/11:00pm 22.4 24.4 21.6 95 0.5 SSE 13 22 7 12 1007.0 1006.7 5.0
26/10:30pm 22.3 23.5 21.5 95 0.5 S 17 28 9 15 1006.8 1006.5 5.0
26/10:00pm 22.2 22.9 21.5 96 0.5 SSE 20 28 11 15 1006.4 1006.1 5.0
26/09:30pm 22.5 23.3 21.7 95 0.5 S 20 28 11 15 1006.2 1005.9 4.2
26/09:00pm 22.5 23.4 21.5 94 0.7 SSW 19 30 10 16 1006.1 1005.8 1.8
26/08:30pm 23.0 23.1 20.3 85 1.8 SW 20 32 11 17 1005.7 1005.4 0.2
26/08:00pm 24.1 25.2 21.2 84 1.9 SSW 17 26 9 14 1004.5 1004.2 0.2
26/07:30pm 25.0 27.5 20.3 75 3.1 W 7 19 4 10 1003.7 1003.3 0.0
26/07:23pm 25.3 27.7 20.1 73 3.4 WNW 7 19 4 10 1003.5 1003.1 0.0
26/07:00pm 27.2 28.7 19.0 61 5.3 N 9 15 5 8 1001.5 1001.1 0.0
26/06:30pm 26.5 26.4 19.9 67 4.3 NNE 20 28 11 15 1000.4 1000.0 0.0
26/06:00pm 25.8 25.0 20.1 71 3.7 NNE 24 35 13 19 999.9 999.5 0.0
26/05:30pm 25.4 25.5 20.4 74 3.3 NNE 20 28 11 15 999.8 999.4 0.0
26/05:00pm 26.9 26.7 19.8 65 4.6 NNE 20 26 11 14 999.7 999.3 0.0
26/04:30pm 28.6 28.8 20.6 62 5.3 NNE 20 32 11 17 999.9 999.5 0.0
26/04:00pm 28.2 28.5 20.7 63 5.0 NNE 20 26 11 14 999.9 999.5 0.0
26/03:30pm 27.6 28.5 20.9 67 4.4 NNE 17 24 9 13 1000.2 999.8 0.0
26/03:00pm 31.1 31.8 20.4 53 7.1 NNE 17 22 9 12 1000.4 1000.0 0.0
26/02:30pm 34.3 32.9 16.6 34 11.3 NNE 19 26 10 14 1000.4 1000.0 0.0
26/02:00pm 32.6 33.1 18.4 43 9.3 NNE 13 20 7 11 1000.3 999.9 0.0
26/01:30pm 30.3 30.5 19.3 51 7.2 N 17 26 9 14 1000.3 999.9 0.0
26/01:00pm 29.9 30.4 19.3 53 7.0 NE 15 22 8 12 1000.2 999.8 0.0
26/12:30pm 32.9 31.7 17.5 39 9.9 N 20 26 11 14 1000.5 1000.1 0.0
26/12:00pm 32.3 32.5 20.5 49 7.9 NNE 20 28 11 15 1000.4 1000.0 0.0
26/11:30am 32.5 32.1 19.4 46 8.6 NNE 20 28 11 15 1000.5 1000.1 0.0
26/11:00am 31.4 31.6 19.4 49 7.9 NNE 17 22 9 12 1000.7 1000.3 0.0
26/10:30am 30.2 30.1 19.6 53 7.0 NNE 19 24 10 13 1001.0 1000.6 0.0
26/10:00am 30.6 30.2 19.0 50 7.6 NNE 19 26 10 14 1001.1 1000.7 0.0
26/09:30am 29.2 29.0 18.6 52 6.8 NNE 17 22 9 12 1001.4 1001.0 0.0
26/09:00am 26.5 27.3 20.6 70 3.9 N 17 24 9 13 1001.6 1001.2 0.0
26/08:30am 24.5 25.0 20.8 80 2.4 N 19 26 10 14 1001.6 1001.2 0.0
26/08:00am 23.6 24.1 21.1 86 1.7 N 20 28 11 15 1001.3 1000.9 0.0
26/07:30am 22.6 23.1 21.1 91 1.0 N 20 30 11 16 1001.3 1000.9 0.0
26/07:00am 21.8 22.2 21.0 95 0.5 NNE 20 28 11 15 1000.9 1000.5 0.0
26/06:30am 21.4 21.3 20.7 96 0.5 NNE 22 30 12 16 1000.6 1000.2 0.0
26/06:00am 21.4 21.3 20.7 96 0.5 NNE 22 30 12 16 1000.2 999.8 0.0
26/05:30am 21.5 21.0 20.8 96 0.5 NNE 24 32 13 17 1000.2 999.8 0.0
26/05:00am 21.4 21.3 20.7 96 0.5 NNE 22 32 12 17 1000.1 999.7 0.0
26/04:30am 21.5 20.7 20.8 96 0.5 NNE 26 37 14 20 1000.2 999.8 0.0
26/04:00am 21.6 20.8 20.8 95 0.5 NNE 26 33 14 18 1000.5 1000.1 0.0
26/03:30am 21.7 21.3 20.9 95 0.5 NNE 24 32 13 17 1000.9 1000.5 0.0
26/03:00am 21.7 20.5 20.9 95 0.5 NNE 28 39 15 21 1001.1 1000.7 0.0
26/02:30am 21.7 20.1 20.7 94 0.7 NNE 30 41 16 22 1001.5 1001.1 0.0

Other formats

Comma delimited format used in spreadsheet applications
http://www.bom.gov.au/fwo/IDN60801/IDN60801.95940.axf

JavaScript Object Notation format (JSON) in row-major order
http://www.bom.gov.au/fwo/IDN60801/IDN60801.95940.json

Data quality

Most of these data are generated automatically and are frequently updated. Quality checks on data are not normally performed. It is possible for incorrect values to appear. Refer to information at About Latest Weather Observations and please check the disclaimer before using these data.